createdAt,value
2023-03-29T00:01:34.906Z,86.22
2023-03-29T00:04:07.583Z,86.97
2023-03-29T00:06:37.472Z,85.63
2023-03-29T00:09:09.899Z,85.86
2023-03-29T00:11:39.629Z,83.49
2023-03-29T00:14:09.346Z,81.57
2023-03-29T00:16:39.678Z,80.54
2023-03-29T00:19:09.428Z,79.75
2023-03-29T00:21:39.132Z,80.59
2023-03-29T00:24:08.991Z,78.41
2023-03-29T00:26:38.606Z,79.34
2023-03-29T00:29:08.337Z,77.85
2023-03-29T00:31:38.051Z,77.03
2023-03-29T00:34:07.749Z,74.53
2023-03-29T00:36:37.408Z,72.39
2023-03-29T00:39:07.008Z,71.78
2023-03-29T00:41:36.708Z,71.92
2023-03-29T00:44:07.334Z,70.08
2023-03-29T00:46:37.518Z,69.12
2023-03-29T00:49:15.413Z,67.66
2023-03-29T00:51:45.751Z,67.63
2023-03-29T00:54:20.178Z,66.72
2023-03-29T00:56:53.116Z,66.63
2023-03-29T00:59:26.456Z,65.20
2023-03-29T01:02:08.553Z,63.82
2023-03-29T01:04:52.484Z,62.65
2023-03-29T01:07:25.264Z,63.90
2023-03-29T01:10:06.613Z,63.87
2023-03-29T01:12:41.363Z,63.90
2023-03-29T01:15:30.190Z,62.04
2023-03-29T01:18:03.322Z,60.51
2023-03-29T01:20:52.611Z,58.50
2023-03-29T01:24:08.172Z,57.21
2023-03-29T01:27:02.515Z,57.97
2023-03-29T01:30:07.016Z,58.71
2023-03-29T01:32:40.935Z,57.15
2023-03-29T01:35:37.287Z,56.05
2023-03-29T01:38:16.063Z,54.87
2023-03-29T01:40:45.688Z,54.63
2023-03-29T01:43:19.121Z,55.32
2023-03-29T01:45:56.183Z,53.36
2023-03-29T01:48:29.938Z,52.51
2023-03-29T01:51:09.198Z,52.00
2023-03-29T01:53:41.259Z,52.38
2023-03-29T01:56:18.824Z,50.71
2023-03-29T01:58:53.336Z,48.30
2023-03-29T02:01:28.070Z,47.88
2023-03-29T02:04:04.303Z,48.07
2023-03-29T02:06:36.037Z,47.54
2023-03-29T02:09:06.777Z,46.71
2023-03-29T02:11:37.984Z,46.50
2023-03-29T02:14:08.003Z,46.01
2023-03-29T02:16:40.505Z,43.80
2023-03-29T02:19:12.222Z,42.54
2023-03-29T02:21:50.656Z,41.31
2023-03-29T02:24:23.743Z,39.94
2023-03-29T02:26:53.502Z,39.90
2023-03-29T02:29:23.100Z,40.14
2023-03-29T02:32:00.401Z,40.58
2023-03-29T02:34:39.161Z,40.34
2023-03-29T02:37:17.231Z,38.34
2023-03-29T02:39:51.137Z,38.04
2023-03-29T02:42:21.906Z,36.37
2023-03-29T02:44:54.345Z,35.91
2023-03-29T02:47:40.765Z,33.08
2023-03-29T02:50:10.180Z,35.11
2023-03-29T02:52:44.620Z,33.33
2023-03-29T02:55:19.304Z,30.48
2023-03-29T02:57:48.884Z,28.07
2023-03-29T03:00:21.428Z,33.17
2023-03-29T03:02:52.361Z,32.97
2023-03-29T03:05:22.170Z,32.83
2023-03-29T03:07:51.832Z,32.83
2023-03-29T03:10:21.546Z,33.01
2023-03-29T03:12:51.321Z,33.05
2023-03-29T03:15:21.434Z,32.25
2023-03-29T03:17:50.988Z,30.78
2023-03-29T03:20:23.635Z,30.96
2023-03-29T03:22:53.281Z,31.50
2023-03-29T03:25:23.530Z,31.12
2023-03-29T03:27:53.619Z,29.73
2023-03-29T03:30:23.445Z,28.66
2023-03-29T03:32:53.127Z,29.50
2023-03-29T03:35:23.660Z,29.21
2023-03-29T03:37:53.295Z,29.15
2023-03-29T03:40:23.596Z,29.52
2023-03-29T03:42:53.461Z,29.60
2023-03-29T03:45:23.402Z,29.21
2023-03-29T03:47:53.696Z,28.93
2023-03-29T03:50:23.433Z,28.67
2023-03-29T03:52:53.577Z,28.65
2023-03-29T03:55:23.604Z,28.39
2023-03-29T03:57:54.102Z,28.51
2023-03-29T04:00:24.908Z,28.70
2023-03-29T04:02:58.317Z,28.83
2023-03-29T04:05:28.620Z,28.42
2023-03-29T04:07:58.848Z,27.83
2023-03-29T04:10:28.576Z,28.04
2023-03-29T04:12:58.413Z,28.72
2023-03-29T04:15:28.131Z,28.26
2023-03-29T04:18:03.285Z,28.63
2023-03-29T04:20:32.899Z,28.72
2023-03-29T04:23:02.529Z,28.93
2023-03-29T04:25:32.175Z,29.18
2023-03-29T04:28:02.103Z,29.11
2023-03-29T04:30:31.758Z,28.68
2023-03-29T04:33:01.914Z,28.51
2023-03-29T04:35:31.832Z,28.40
2023-03-29T04:38:01.532Z,28.57
2023-03-29T04:40:31.197Z,28.24
2023-03-29T04:43:02.356Z,25.26
2023-03-29T04:45:32.943Z,24.76
2023-03-29T04:48:02.681Z,23.69
2023-03-29T04:50:33.455Z,22.92
2023-03-29T04:53:03.224Z,22.84
2023-03-29T04:55:33.040Z,22.06
2023-03-29T04:58:02.787Z,22.63
2023-03-29T05:00:33.092Z,23.79
2023-03-29T05:03:02.803Z,23.86
2023-03-29T05:05:33.343Z,23.82
2023-03-29T05:08:03.138Z,23.64
2023-03-29T05:10:32.904Z,23.95
2023-03-29T05:13:02.600Z,24.05
2023-03-29T05:15:33.402Z,24.23
2023-03-29T05:18:03.038Z,23.02
2023-03-29T05:20:32.916Z,23.62
2023-03-29T05:23:02.943Z,24.41
2023-03-29T05:25:32.576Z,23.43
2023-03-29T05:28:03.028Z,23.62
2023-03-29T05:30:32.666Z,23.76
2023-03-29T05:33:04.482Z,23.43
2023-03-29T05:35:34.531Z,23.40
2023-03-29T05:38:05.918Z,22.39
2023-03-29T05:40:37.284Z,23.41
2023-03-29T05:43:06.903Z,23.05
2023-03-29T05:45:36.525Z,22.67
2023-03-29T05:48:06.950Z,23.55
2023-03-29T05:50:38.409Z,23.90
2023-03-29T05:53:08.050Z,24.24
2023-03-29T05:55:37.623Z,24.77
2023-03-29T05:58:07.182Z,25.16
2023-03-29T06:00:39.416Z,24.73
2023-03-29T06:03:18.007Z,25.19
2023-03-29T06:05:52.323Z,26.33
2023-03-29T06:08:22.216Z,26.78
2023-03-29T06:10:51.966Z,26.84
2023-03-29T06:13:21.832Z,26.21
2023-03-29T06:15:51.451Z,26.26
2023-03-29T06:18:21.867Z,25.79
2023-03-29T06:20:55.315Z,25.58
2023-03-29T06:23:24.841Z,25.35
2023-03-29T06:25:54.459Z,25.36
2023-03-29T06:28:25.637Z,25.01
2023-03-29T06:30:58.137Z,25.67
2023-03-29T06:33:28.002Z,25.82
2023-03-29T06:35:57.848Z,26.17
2023-03-29T06:38:29.949Z,26.75
2023-03-29T06:41:08.106Z,26.86
2023-03-29T06:43:38.153Z,27.05
2023-03-29T06:46:13.233Z,26.48
2023-03-29T06:48:43.337Z,26.90
2023-03-29T06:51:13.016Z,27.23
2023-03-29T06:53:42.965Z,26.79
2023-03-29T06:56:12.736Z,26.86
2023-03-29T06:58:42.496Z,27.08
2023-03-29T07:01:13.180Z,27.25
2023-03-29T07:03:44.178Z,27.11
2023-03-29T07:06:18.014Z,27.14
2023-03-29T07:08:48.532Z,26.63
2023-03-29T07:11:20.202Z,27.01
2023-03-29T07:13:50.605Z,24.96
2023-03-29T07:16:20.879Z,24.00
2023-03-29T07:18:50.632Z,23.50
2023-03-29T07:21:20.216Z,22.96
2023-03-29T07:23:49.750Z,22.03
2023-03-29T07:26:28.938Z,22.39
2023-03-29T07:29:00.291Z,22.10
2023-03-29T07:31:34.473Z,22.82
2023-03-29T07:34:08.140Z,21.78
2023-03-29T07:36:38.465Z,21.61
2023-03-29T07:39:10.692Z,20.64
2023-03-29T07:41:40.478Z,19.24
2023-03-29T07:44:10.929Z,19.19
2023-03-29T07:46:40.762Z,19.83
2023-03-29T07:49:10.444Z,19.60
2023-03-29T07:51:40.097Z,19.35
2023-03-29T07:54:09.782Z,18.98
2023-03-29T07:56:39.339Z,18.60
2023-03-29T07:59:08.959Z,18.44
2023-03-29T08:01:38.559Z,17.93
2023-03-29T08:04:08.486Z,18.54
2023-03-29T08:06:39.007Z,18.53
2023-03-29T08:09:08.598Z,18.54
2023-03-29T08:11:41.398Z,18.15
2023-03-29T08:14:10.957Z,18.60
2023-03-29T08:16:40.583Z,18.77
2023-03-29T08:19:10.372Z,19.11
2023-03-29T08:21:39.936Z,19.32
2023-03-29T08:24:09.865Z,20.17
2023-03-29T08:26:39.520Z,20.07
2023-03-29T08:29:10.418Z,20.83
2023-03-29T08:31:40.136Z,20.75
2023-03-29T08:34:09.783Z,21.42
2023-03-29T08:36:39.549Z,22.07
2023-03-29T08:39:09.226Z,22.36
2023-03-29T08:41:41.877Z,22.23
2023-03-29T08:44:22.070Z,22.25
2023-03-29T08:47:04.347Z,22.11
2023-03-29T08:49:34.430Z,21.60
2023-03-29T08:52:08.605Z,22.02
2023-03-29T08:54:45.525Z,22.34
2023-03-29T08:57:32.689Z,22.40
2023-03-29T09:00:09.054Z,22.90
2023-03-29T09:02:39.599Z,23.18
2023-03-29T09:05:24.691Z,23.40
2023-03-29T09:07:55.451Z,23.53
2023-03-29T09:10:58.090Z,23.81
2023-03-29T09:13:34.943Z,23.68
2023-03-29T09:16:19.342Z,23.33
2023-03-29T09:19:18.434Z,23.67
2023-03-29T09:22:00.166Z,23.33
2023-03-29T09:24:40.280Z,22.80
2023-03-29T09:27:17.596Z,22.88
2023-03-29T09:29:50.310Z,23.30
2023-03-29T09:32:28.153Z,23.25
2023-03-29T09:35:19.699Z,23.57
2023-03-29T09:37:52.776Z,24.26
2023-03-29T09:40:45.431Z,24.01
2023-03-29T09:43:19.884Z,24.14
2023-03-29T09:45:58.538Z,24.30
2023-03-29T09:48:31.866Z,24.57
2023-03-29T09:51:04.474Z,24.65
2023-03-29T09:53:34.420Z,25.31
2023-03-29T09:56:04.747Z,25.49
2023-03-29T09:58:34.472Z,26.11
2023-03-29T10:01:11.552Z,26.43
2023-03-29T10:03:43.080Z,26.91
2023-03-29T10:06:14.251Z,27.69
2023-03-29T10:08:58.270Z,27.31
2023-03-29T10:11:36.426Z,27.90
2023-03-29T10:14:19.193Z,27.94
2023-03-29T10:16:49.147Z,27.95
2023-03-29T10:19:25.767Z,28.24
2023-03-29T10:21:57.114Z,28.31
2023-03-29T10:24:28.997Z,27.95
2023-03-29T10:27:13.145Z,28.54
2023-03-29T10:29:44.646Z,28.48
2023-03-29T10:32:34.209Z,28.73
2023-03-29T10:35:12.352Z,28.02
2023-03-29T10:37:47.522Z,27.89
2023-03-29T10:40:44.758Z,28.36
2023-03-29T10:43:22.845Z,28.36
2023-03-29T10:45:57.936Z,28.86
2023-03-29T10:48:32.408Z,28.20
2023-03-29T10:51:04.019Z,28.23
2023-03-29T10:53:39.263Z,28.47
2023-03-29T10:56:24.566Z,28.92
2023-03-29T10:59:06.315Z,28.81
2023-03-29T11:02:08.234Z,29.15
2023-03-29T11:05:00.672Z,29.09
2023-03-29T11:07:57.831Z,29.50
2023-03-29T11:11:02.872Z,29.69
2023-03-29T11:13:59.754Z,29.91
2023-03-29T11:17:02.450Z,30.09
2023-03-29T11:19:58.011Z,30.40
2023-03-29T11:22:49.363Z,30.45
2023-03-29T11:25:41.108Z,30.91
2023-03-29T11:28:13.642Z,31.20
2023-03-29T11:31:02.403Z,32.51
2023-03-29T11:33:56.415Z,32.41
2023-03-29T11:36:53.511Z,32.96
2023-03-29T11:39:47.672Z,33.21
2023-03-29T11:42:26.718Z,33.62
2023-03-29T11:44:59.113Z,33.86
2023-03-29T11:47:35.134Z,34.81
2023-03-29T11:50:21.114Z,35.38
2023-03-29T11:53:14.786Z,35.73
2023-03-29T11:55:45.613Z,35.59
2023-03-29T11:58:25.102Z,35.88
2023-03-29T12:01:00.395Z,35.77
2023-03-29T12:03:43.644Z,35.90
2023-03-29T12:06:33.455Z,36.24
2023-03-29T12:09:24.138Z,36.31
2023-03-29T12:12:31.500Z,36.07
2023-03-29T12:15:26.357Z,36.34
2023-03-29T12:18:01.910Z,36.79
2023-03-29T12:20:37.130Z,36.51
2023-03-29T12:23:09.220Z,36.88
2023-03-29T12:26:03.975Z,37.87
2023-03-29T12:29:08.721Z,37.29
2023-03-29T12:31:55.004Z,37.58
2023-03-29T12:35:01.370Z,38.71
2023-03-29T12:37:42.965Z,38.25
2023-03-29T12:40:21.153Z,39.10
2023-03-29T12:42:55.831Z,37.82
2023-03-29T12:45:44.423Z,38.35
2023-03-29T12:48:29.179Z,38.80
2023-03-29T12:51:03.364Z,38.41
2023-03-29T12:53:44.125Z,38.74
2023-03-29T12:56:20.269Z,38.36
2023-03-29T12:59:01.931Z,38.84
2023-03-29T13:01:35.438Z,39.02
2023-03-29T13:04:05.639Z,40.37
2023-03-29T13:06:54.135Z,40.28
2023-03-29T13:09:51.577Z,39.68
2023-03-29T13:12:46.221Z,39.58
2023-03-29T13:15:19.179Z,40.03
2023-03-29T13:17:52.140Z,40.71
2023-03-29T13:20:46.031Z,40.11
2023-03-29T13:23:30.822Z,40.29
2023-03-29T13:26:21.692Z,40.83
2023-03-29T13:29:09.435Z,40.92
2023-03-29T13:31:46.791Z,41.05
2023-03-29T13:34:35.337Z,41.01
2023-03-29T13:37:22.421Z,40.98
2023-03-29T13:39:55.281Z,40.57
2023-03-29T13:42:44.932Z,41.55
2023-03-29T13:45:30.655Z,41.25
2023-03-29T13:48:07.975Z,41.26
2023-03-29T13:50:54.016Z,41.51
2023-03-29T13:54:03.834Z,42.58
2023-03-29T13:57:02.983Z,42.03
2023-03-29T14:00:23.458Z,41.79
2023-03-29T14:02:55.119Z,42.40
2023-03-29T14:05:32.343Z,42.12
2023-03-29T14:08:21.029Z,44.09
2023-03-29T14:10:53.719Z,43.82
2023-03-29T14:13:30.618Z,43.51
2023-03-29T14:16:13.547Z,43.17
2023-03-29T14:18:46.504Z,43.42
2023-03-29T14:21:19.246Z,44.61
2023-03-29T14:23:56.456Z,43.70
2023-03-29T14:26:33.178Z,43.76
2023-03-29T14:29:06.253Z,43.94
2023-03-29T14:31:40.317Z,44.31
2023-03-29T14:34:21.809Z,44.80
2023-03-29T14:36:54.757Z,44.51
2023-03-29T14:39:26.794Z,44.23
2023-03-29T14:42:00.351Z,43.62
2023-03-29T14:44:36.796Z,44.10
2023-03-29T14:47:07.372Z,44.37
2023-03-29T14:49:38.069Z,44.66
2023-03-29T14:52:08.535Z,46.02
2023-03-29T14:54:38.541Z,45.89
2023-03-29T14:57:09.773Z,45.47
2023-03-29T14:59:44.553Z,44.97
2023-03-29T15:02:34.111Z,45.18
2023-03-29T15:05:09.626Z,44.94
2023-03-29T15:07:41.378Z,44.89
2023-03-29T15:10:18.915Z,44.58
2023-03-29T15:12:52.152Z,46.48
2023-03-29T15:15:23.665Z,46.40
2023-03-29T15:17:54.675Z,45.80
2023-03-29T15:20:42.462Z,45.96
2023-03-29T15:23:25.325Z,45.81
2023-03-29T15:26:26.179Z,46.76
2023-03-29T15:29:24.734Z,46.08
2023-03-29T15:32:02.271Z,45.78
2023-03-29T15:34:35.388Z,46.09
2023-03-29T15:37:05.785Z,46.70
2023-03-29T15:39:36.496Z,46.13
2023-03-29T15:42:06.186Z,47.98
2023-03-29T15:44:36.821Z,48.68
2023-03-29T15:47:11.758Z,47.96
2023-03-29T15:49:42.158Z,46.77
2023-03-29T15:52:12.027Z,45.99
2023-03-29T15:54:42.798Z,47.14
2023-03-29T15:57:17.388Z,48.52
2023-03-29T15:59:47.533Z,48.70
2023-03-29T16:02:18.468Z,49.28
2023-03-29T16:04:48.338Z,47.47
2023-03-29T16:07:23.360Z,46.23
2023-03-29T16:09:53.259Z,45.55
2023-03-29T16:12:24.559Z,46.35
2023-03-29T16:14:54.688Z,46.02
2023-03-29T16:17:24.412Z,47.12
2023-03-29T16:19:54.063Z,47.76
2023-03-29T16:22:25.544Z,47.12
2023-03-29T16:24:56.487Z,47.38
2023-03-29T16:27:26.172Z,46.60
2023-03-29T16:29:56.147Z,46.87
2023-03-29T16:32:25.933Z,46.85
2023-03-29T16:34:56.906Z,46.35
2023-03-29T16:37:28.121Z,46.92
2023-03-29T16:40:01.897Z,46.23
2023-03-29T16:42:31.663Z,47.34
2023-03-29T16:45:06.614Z,47.47
2023-03-29T16:47:36.671Z,47.62
2023-03-29T16:50:06.709Z,48.16
2023-03-29T16:52:36.406Z,48.24
2023-03-29T16:55:07.471Z,48.78
2023-03-29T16:57:37.429Z,49.04
2023-03-29T17:00:08.422Z,48.46
2023-03-29T17:02:38.697Z,48.43
2023-03-29T17:05:08.837Z,47.68
2023-03-29T17:07:38.563Z,48.27
2023-03-29T17:10:12.217Z,48.56
2023-03-29T17:12:41.637Z,48.90
2023-03-29T17:15:12.087Z,48.53
2023-03-29T17:17:42.345Z,48.82
2023-03-29T17:20:13.900Z,48.86
2023-03-29T17:22:54.263Z,49.06
2023-03-29T17:25:26.004Z,50.05
2023-03-29T17:27:55.677Z,50.56
2023-03-29T17:30:32.036Z,51.36
2023-03-29T17:33:03.900Z,53.18
2023-03-29T17:35:33.864Z,52.29
2023-03-29T17:38:04.408Z,52.24
2023-03-29T17:40:34.101Z,53.02
2023-03-29T17:43:03.863Z,54.01
2023-03-29T17:45:33.865Z,53.93
2023-03-29T17:48:06.064Z,56.53
2023-03-29T17:50:36.671Z,56.77
2023-03-29T17:53:07.162Z,56.35
2023-03-29T17:55:36.902Z,56.35
2023-03-29T17:58:07.105Z,57.57
2023-03-29T18:00:37.281Z,58.85
2023-03-29T18:03:07.337Z,57.07
2023-03-29T18:05:37.873Z,57.43
2023-03-29T18:08:07.721Z,56.86
2023-03-29T18:10:38.330Z,57.85
2023-03-29T18:13:08.286Z,56.84
2023-03-29T18:15:37.929Z,56.80
2023-03-29T18:18:07.927Z,56.47
2023-03-29T18:20:37.843Z,57.26
2023-03-29T18:23:07.670Z,59.29
2023-03-29T18:25:37.449Z,59.97
2023-03-29T18:28:08.171Z,59.24
2023-03-29T18:30:38.911Z,58.36
2023-03-29T18:33:09.002Z,58.75
2023-03-29T18:35:40.035Z,58.62
2023-03-29T18:38:10.289Z,58.94
2023-03-29T18:40:40.660Z,58.30
2023-03-29T18:43:10.269Z,57.87
2023-03-29T18:45:39.936Z,59.24
2023-03-29T18:48:09.686Z,58.22
2023-03-29T18:50:40.446Z,58.00
2023-03-29T18:53:12.667Z,57.94
2023-03-29T18:55:46.090Z,56.99
2023-03-29T18:58:17.210Z,58.87
2023-03-29T19:00:47.078Z,58.36
2023-03-29T19:03:16.841Z,57.30
2023-03-29T19:05:46.607Z,59.39
2023-03-29T19:08:16.293Z,59.39
2023-03-29T19:10:46.475Z,59.19
2023-03-29T19:13:20.877Z,58.73
2023-03-29T19:15:50.575Z,58.15
2023-03-29T19:18:20.242Z,57.31
2023-03-29T19:20:55.305Z,57.42
2023-03-29T19:23:29.747Z,60.07
2023-03-29T19:26:02.572Z,59.97
2023-03-29T19:28:33.305Z,59.50
2023-03-29T19:31:04.595Z,59.41
2023-03-29T19:33:34.525Z,60.36
2023-03-29T19:36:04.525Z,61.77
2023-03-29T19:38:34.411Z,62.29
2023-03-29T19:41:04.247Z,62.27
2023-03-29T19:43:34.020Z,62.29
2023-03-29T19:46:12.202Z,63.44
2023-03-29T19:48:42.656Z,63.99
2023-03-29T19:51:12.312Z,63.47
2023-03-29T19:53:42.018Z,63.04
2023-03-29T19:56:12.394Z,62.72
2023-03-29T19:58:42.335Z,63.94
2023-03-29T20:01:12.228Z,66.27
2023-03-29T20:03:43.546Z,64.93
2023-03-29T20:06:13.597Z,65.50
2023-03-29T20:08:43.306Z,64.62
2023-03-29T20:11:13.930Z,67.45
2023-03-29T20:13:47.361Z,67.82
2023-03-29T20:16:19.072Z,67.75
2023-03-29T20:18:48.955Z,68.47
2023-03-29T20:21:19.848Z,67.96
2023-03-29T20:23:49.651Z,66.73
2023-03-29T20:26:19.795Z,66.30
2023-03-29T20:28:49.440Z,64.76
2023-03-29T20:31:19.209Z,60.91
2023-03-29T20:33:48.862Z,58.71
2023-03-29T20:36:24.497Z,61.42
2023-03-29T20:38:56.777Z,60.20
2023-03-29T20:41:26.582Z,57.80
2023-03-29T20:44:01.876Z,59.14
2023-03-29T20:46:35.008Z,60.23
2023-03-29T20:49:07.308Z,64.37
2023-03-29T20:51:39.660Z,59.67
2023-03-29T20:54:11.520Z,62.32
2023-03-29T20:56:43.754Z,60.52
2023-03-29T20:59:13.752Z,57.90
2023-03-29T21:01:43.872Z,57.85
2023-03-29T21:04:13.680Z,57.30
2023-03-29T21:06:43.276Z,54.78
2023-03-29T21:09:14.044Z,53.28
2023-03-29T21:11:43.752Z,54.97
2023-03-29T21:14:13.801Z,54.02
2023-03-29T21:16:48.041Z,53.76
2023-03-29T21:19:19.003Z,53.16
2023-03-29T21:21:49.755Z,53.24
2023-03-29T21:24:19.623Z,54.10
2023-03-29T21:26:49.386Z,53.69
2023-03-29T21:29:19.014Z,53.39
2023-03-29T21:31:48.636Z,52.18
2023-03-29T21:34:18.552Z,50.90
2023-03-29T21:36:48.131Z,49.85
2023-03-29T21:39:17.988Z,50.79
2023-03-29T21:41:47.855Z,51.58
2023-03-29T21:44:17.747Z,50.03
2023-03-29T21:46:47.709Z,49.51
2023-03-29T21:49:17.360Z,49.94
2023-03-29T21:51:47.981Z,48.94
2023-03-29T21:54:17.667Z,48.47
2023-03-29T21:56:49.221Z,47.00
2023-03-29T21:59:18.811Z,46.04
2023-03-29T22:01:48.433Z,45.05
2023-03-29T22:04:29.241Z,46.54
2023-03-29T22:07:05.531Z,47.60
2023-03-29T22:09:36.486Z,45.90
2023-03-29T22:12:07.087Z,44.91
2023-03-29T22:14:37.208Z,43.47
2023-03-29T22:17:08.454Z,42.10
2023-03-29T22:19:41.563Z,43.19
2023-03-29T22:22:14.838Z,41.81
2023-03-29T22:24:44.661Z,42.00
2023-03-29T22:27:14.294Z,42.55
2023-03-29T22:29:43.942Z,41.72
2023-03-29T22:32:13.554Z,39.60
2023-03-29T22:34:43.245Z,38.41
2023-03-29T22:37:13.603Z,38.15
2023-03-29T22:39:43.256Z,39.37
2023-03-29T22:42:12.974Z,39.45
2023-03-29T22:44:42.788Z,40.03
2023-03-29T22:47:12.562Z,40.77
2023-03-29T22:49:42.518Z,40.85
2023-03-29T22:52:12.180Z,41.50
2023-03-29T22:54:42.031Z,41.90
2023-03-29T22:57:11.699Z,42.16
2023-03-29T22:59:41.404Z,42.81
2023-03-29T23:02:11.086Z,43.24
2023-03-29T23:04:40.823Z,42.30
2023-03-29T23:07:10.701Z,42.32
2023-03-29T23:09:40.286Z,42.84
2023-03-29T23:12:11.224Z,42.58
2023-03-29T23:14:44.153Z,42.29
2023-03-29T23:17:14.923Z,42.82
2023-03-29T23:19:44.713Z,42.12
2023-03-29T23:22:15.106Z,43.12
2023-03-29T23:24:45.353Z,41.66
2023-03-29T23:27:15.302Z,41.14
2023-03-29T23:29:46.660Z,41.42
2023-03-29T23:32:17.237Z,40.99
2023-03-29T23:34:47.125Z,41.03
2023-03-29T23:37:16.730Z,40.39
2023-03-29T23:39:46.317Z,40.25
2023-03-29T23:42:15.927Z,40.09
2023-03-29T23:44:45.555Z,39.35
2023-03-29T23:47:15.454Z,39.95
2023-03-29T23:49:46.770Z,38.96
2023-03-29T23:52:16.380Z,38.54
2023-03-29T23:54:45.975Z,37.97
2023-03-29T23:57:15.619Z,37.79
2023-03-29T23:59:45.218Z,37.71
